sensor_id;sensor_type;location;lat;lon;timestamp;temperature;humidity
7218;DHT22;3650;53.580;10.094;2023-05-07T00:02:18;12.20;77.90
7218;DHT22;3650;53.580;10.094;2023-05-07T00:04:45;12.20;78.20
7218;DHT22;3650;53.580;10.094;2023-05-07T00:07:12;12.20;78.70
7218;DHT22;3650;53.580;10.094;2023-05-07T00:09:38;12.20;78.90
7218;DHT22;3650;53.580;10.094;2023-05-07T00:12:05;12.20;78.40
7218;DHT22;3650;53.580;10.094;2023-05-07T00:14:32;12.10;78.40
7218;DHT22;3650;53.580;10.094;2023-05-07T00:16:59;12.20;78.70
7218;DHT22;3650;53.580;10.094;2023-05-07T00:19:27;12.20;78.90
7218;DHT22;3650;53.580;10.094;2023-05-07T00:21:54;12.20;79.00
7218;DHT22;3650;53.580;10.094;2023-05-07T00:24:22;12.20;79.00
7218;DHT22;3650;53.580;10.094;2023-05-07T00:26:49;12.10;78.50
7218;DHT22;3650;53.580;10.094;2023-05-07T00:29:16;12.10;79.10
7218;DHT22;3650;53.580;10.094;2023-05-07T00:31:43;12.10;79.40
7218;DHT22;3650;53.580;10.094;2023-05-07T00:34:10;12.10;79.80
7218;DHT22;3650;53.580;10.094;2023-05-07T00:36:38;12.10;79.70
7218;DHT22;3650;53.580;10.094;2023-05-07T00:39:05;12.10;79.70
7218;DHT22;3650;53.580;10.094;2023-05-07T00:41:32;12.10;79.60
7218;DHT22;3650;53.580;10.094;2023-05-07T00:43:59;12.10;80.00
7218;DHT22;3650;53.580;10.094;2023-05-07T00:46:26;12.10;79.80
7218;DHT22;3650;53.580;10.094;2023-05-07T00:48:53;12.10;79.90
7218;DHT22;3650;53.580;10.094;2023-05-07T00:51:21;12.10;79.80
7218;DHT22;3650;53.580;10.094;2023-05-07T00:53:49;12.10;80.00
7218;DHT22;3650;53.580;10.094;2023-05-07T00:56:16;12.10;80.10
7218;DHT22;3650;53.580;10.094;2023-05-07T00:58:43;12.10;80.00
7218;DHT22;3650;53.580;10.094;2023-05-07T01:01:10;12.20;80.10
7218;DHT22;3650;53.580;10.094;2023-05-07T01:03:37;12.20;80.40
7218;DHT22;3650;53.580;10.094;2023-05-07T01:06:05;12.20;80.30
7218;DHT22;3650;53.580;10.094;2023-05-07T01:08:32;12.20;80.20
7218;DHT22;3650;53.580;10.094;2023-05-07T01:11:01;12.10;79.90
7218;DHT22;3650;53.580;10.094;2023-05-07T01:13:29;12.20;79.80
7218;DHT22;3650;53.580;10.094;2023-05-07T01:15:56;12.20;80.00
7218;DHT22;3650;53.580;10.094;2023-05-07T01:18:23;12.20;79.10
7218;DHT22;3650;53.580;10.094;2023-05-07T01:20:51;12.10;79.00
7218;DHT22;3650;53.580;10.094;2023-05-07T01:23:20;12.10;78.50
7218;DHT22;3650;53.580;10.094;2023-05-07T01:25:51;12.10;78.60
7218;DHT22;3650;53.580;10.094;2023-05-07T01:28:18;12.10;78.60
7218;DHT22;3650;53.580;10.094;2023-05-07T01:30:49;12.10;78.60
7218;DHT22;3650;53.580;10.094;2023-05-07T01:33:20;12.10;78.50
7218;DHT22;3650;53.580;10.094;2023-05-07T01:35:50;12.20;78.80
7218;DHT22;3650;53.580;10.094;2023-05-07T01:38:19;12.10;78.70
7218;DHT22;3650;53.580;10.094;2023-05-07T01:40:47;12.10;78.50
7218;DHT22;3650;53.580;10.094;2023-05-07T01:43:14;12.10;77.80
7218;DHT22;3650;53.580;10.094;2023-05-07T01:45:41;12.10;77.50
7218;DHT22;3650;53.580;10.094;2023-05-07T01:48:11;12.10;78.00
7218;DHT22;3650;53.580;10.094;2023-05-07T01:50:38;12.10;78.00
7218;DHT22;3650;53.580;10.094;2023-05-07T01:53:05;12.10;78.10
7218;DHT22;3650;53.580;10.094;2023-05-07T01:55:34;12.10;78.50
7218;DHT22;3650;53.580;10.094;2023-05-07T01:58:02;12.10;78.90
7218;DHT22;3650;53.580;10.094;2023-05-07T02:00:29;12.10;79.00
7218;DHT22;3650;53.580;10.094;2023-05-07T02:02:56;12.10;78.40
7218;DHT22;3650;53.580;10.094;2023-05-07T02:05:23;12.00;78.40
7218;DHT22;3650;53.580;10.094;2023-05-07T02:07:50;12.00;78.50
7218;DHT22;3650;53.580;10.094;2023-05-07T02:10:16;12.00;78.60
7218;DHT22;3650;53.580;10.094;2023-05-07T02:12:45;12.10;78.80
7218;DHT22;3650;53.580;10.094;2023-05-07T02:15:11;12.10;78.90
7218;DHT22;3650;53.580;10.094;2023-05-07T02:17:40;12.10;78.90
7218;DHT22;3650;53.580;10.094;2023-05-07T02:20:24;12.10;78.90
7218;DHT22;3650;53.580;10.094;2023-05-07T02:22:51;12.00;78.70
7218;DHT22;3650;53.580;10.094;2023-05-07T02:25:18;12.00;78.70
7218;DHT22;3650;53.580;10.094;2023-05-07T02:27:46;12.10;78.90
7218;DHT22;3650;53.580;10.094;2023-05-07T02:30:13;12.00;78.90
7218;DHT22;3650;53.580;10.094;2023-05-07T02:32:40;12.00;79.00
7218;DHT22;3650;53.580;10.094;2023-05-07T02:35:07;12.00;79.00
7218;DHT22;3650;53.580;10.094;2023-05-07T02:37:34;12.00;78.80
7218;DHT22;3650;53.580;10.094;2023-05-07T02:40:01;12.10;79.00
7218;DHT22;3650;53.580;10.094;2023-05-07T02:42:28;12.10;79.20
7218;DHT22;3650;53.580;10.094;2023-05-07T02:44:57;12.10;79.00
7218;DHT22;3650;53.580;10.094;2023-05-07T02:47:24;12.10;79.50
7218;DHT22;3650;53.580;10.094;2023-05-07T02:49:52;12.10;79.50
7218;DHT22;3650;53.580;10.094;2023-05-07T02:52:19;12.00;78.80
7218;DHT22;3650;53.580;10.094;2023-05-07T02:54:46;12.00;78.70
7218;DHT22;3650;53.580;10.094;2023-05-07T02:57:12;12.00;78.70
7218;DHT22;3650;53.580;10.094;2023-05-07T02:59:39;12.00;78.40
7218;DHT22;3650;53.580;10.094;2023-05-07T03:02:07;12.00;78.50
7218;DHT22;3650;53.580;10.094;2023-05-07T03:04:34;12.00;78.50
7218;DHT22;3650;53.580;10.094;2023-05-07T03:07:01;12.00;78.60
7218;DHT22;3650;53.580;10.094;2023-05-07T03:09:28;11.90;78.50
7218;DHT22;3650;53.580;10.094;2023-05-07T03:11:54;12.00;78.80
7218;DHT22;3650;53.580;10.094;2023-05-07T03:14:22;12.00;79.50
7218;DHT22;3650;53.580;10.094;2023-05-07T03:16:49;12.00;79.90
7218;DHT22;3650;53.580;10.094;2023-05-07T03:19:18;12.00;79.10
7218;DHT22;3650;53.580;10.094;2023-05-07T03:21:44;12.10;79.00
7218;DHT22;3650;53.580;10.094;2023-05-07T03:24:11;12.00;78.50
7218;DHT22;3650;53.580;10.094;2023-05-07T03:26:38;12.00;78.30
7218;DHT22;3650;53.580;10.094;2023-05-07T03:29:05;12.00;78.20
7218;DHT22;3650;53.580;10.094;2023-05-07T03:31:31;12.00;78.00
7218;DHT22;3650;53.580;10.094;2023-05-07T03:33:58;12.00;77.70
7218;DHT22;3650;53.580;10.094;2023-05-07T03:36:26;12.00;78.40
7218;DHT22;3650;53.580;10.094;2023-05-07T03:38:53;12.00;77.30
7218;DHT22;3650;53.580;10.094;2023-05-07T03:41:20;12.00;76.90
7218;DHT22;3650;53.580;10.094;2023-05-07T03:43:47;12.00;76.60
7218;DHT22;3650;53.580;10.094;2023-05-07T03:46:14;12.00;76.90
7218;DHT22;3650;53.580;10.094;2023-05-07T03:48:40;12.00;77.00
7218;DHT22;3650;53.580;10.094;2023-05-07T03:51:07;12.00;76.90
7218;DHT22;3650;53.580;10.094;2023-05-07T03:53:35;12.00;77.10
7218;DHT22;3650;53.580;10.094;2023-05-07T03:56:02;12.00;77.00
7218;DHT22;3650;53.580;10.094;2023-05-07T03:58:29;12.00;77.00
7218;DHT22;3650;53.580;10.094;2023-05-07T04:00:56;12.00;77.00
7218;DHT22;3650;53.580;10.094;2023-05-07T04:03:23;12.00;76.80
7218;DHT22;3650;53.580;10.094;2023-05-07T04:05:49;12.00;77.00
7218;DHT22;3650;53.580;10.094;2023-05-07T04:08:16;12.00;77.00
7218;DHT22;3650;53.580;10.094;2023-05-07T04:10:44;12.00;76.90
7218;DHT22;3650;53.580;10.094;2023-05-07T04:13:11;12.00;76.90
7218;DHT22;3650;53.580;10.094;2023-05-07T04:15:38;12.00;76.90
7218;DHT22;3650;53.580;10.094;2023-05-07T04:18:05;12.00;76.50
7218;DHT22;3650;53.580;10.094;2023-05-07T04:20:34;12.00;76.60
7218;DHT22;3650;53.580;10.094;2023-05-07T04:23:01;12.00;75.20
7218;DHT22;3650;53.580;10.094;2023-05-07T04:25:28;12.00;75.10
7218;DHT22;3650;53.580;10.094;2023-05-07T04:27:57;12.00;75.20
7218;DHT22;3650;53.580;10.094;2023-05-07T04:30:24;12.00;75.20
7218;DHT22;3650;53.580;10.094;2023-05-07T04:32:52;12.00;75.20
7218;DHT22;3650;53.580;10.094;2023-05-07T04:35:18;12.00;75.20
7218;DHT22;3650;53.580;10.094;2023-05-07T04:37:45;12.00;75.10
7218;DHT22;3650;53.580;10.094;2023-05-07T04:40:12;12.00;75.10
7218;DHT22;3650;53.580;10.094;2023-05-07T04:42:39;12.00;75.20
7218;DHT22;3650;53.580;10.094;2023-05-07T04:45:08;12.00;75.10
7218;DHT22;3650;53.580;10.094;2023-05-07T04:47:35;12.00;75.10
7218;DHT22;3650;53.580;10.094;2023-05-07T04:50:02;12.00;75.20
7218;DHT22;3650;53.580;10.094;2023-05-07T04:52:29;12.00;75.20
7218;DHT22;3650;53.580;10.094;2023-05-07T04:54:58;12.00;76.90
7218;DHT22;3650;53.580;10.094;2023-05-07T04:57:25;12.00;75.30
7218;DHT22;3650;53.580;10.094;2023-05-07T04:59:52;12.00;75.30
7218;DHT22;3650;53.580;10.094;2023-05-07T05:02:20;12.00;75.20
7218;DHT22;3650;53.580;10.094;2023-05-07T05:04:47;12.00;75.40
7218;DHT22;3650;53.580;10.094;2023-05-07T05:07:14;12.00;75.30
7218;DHT22;3650;53.580;10.094;2023-05-07T05:09:41;12.10;75.50
7218;DHT22;3650;53.580;10.094;2023-05-07T05:12:07;12.10;75.40
7218;DHT22;3650;53.580;10.094;2023-05-07T05:14:34;12.10;75.30
7218;DHT22;3650;53.580;10.094;2023-05-07T05:17:01;12.10;76.80
7218;DHT22;3650;53.580;10.094;2023-05-07T05:19:29;12.10;76.00
7218;DHT22;3650;53.580;10.094;2023-05-07T05:21:56;12.10;75.30
7218;DHT22;3650;53.580;10.094;2023-05-07T05:24:22;12.10;75.30
7218;DHT22;3650;53.580;10.094;2023-05-07T05:26:49;12.10;75.30
7218;DHT22;3650;53.580;10.094;2023-05-07T05:29:16;12.10;75.30
7218;DHT22;3650;53.580;10.094;2023-05-07T05:31:43;12.10;75.30
7218;DHT22;3650;53.580;10.094;2023-05-07T05:34:09;12.10;75.30
7218;DHT22;3650;53.580;10.094;2023-05-07T05:36:38;12.10;75.20
7218;DHT22;3650;53.580;10.094;2023-05-07T05:39:04;12.10;75.30
7218;DHT22;3650;53.580;10.094;2023-05-07T05:41:31;12.10;75.50
7218;DHT22;3650;53.580;10.094;2023-05-07T05:43:58;12.10;75.30
7218;DHT22;3650;53.580;10.094;2023-05-07T05:46:25;12.10;75.50
7218;DHT22;3650;53.580;10.094;2023-05-07T05:48:52;12.20;75.40
7218;DHT22;3650;53.580;10.094;2023-05-07T05:51:18;12.20;75.40
7218;DHT22;3650;53.580;10.094;2023-05-07T05:53:47;12.20;75.40
7218;DHT22;3650;53.580;10.094;2023-05-07T05:56:15;12.20;75.40
7218;DHT22;3650;53.580;10.094;2023-05-07T05:58:42;12.20;75.40
7218;DHT22;3650;53.580;10.094;2023-05-07T06:01:09;12.20;75.30
7218;DHT22;3650;53.580;10.094;2023-05-07T06:03:37;12.20;75.30
7218;DHT22;3650;53.580;10.094;2023-05-07T06:06:03;12.20;75.60
7218;DHT22;3650;53.580;10.094;2023-05-07T06:08:30;12.20;75.40
7218;DHT22;3650;53.580;10.094;2023-05-07T06:10:58;12.20;75.40
7218;DHT22;3650;53.580;10.094;2023-05-07T06:13:26;12.20;75.30
7218;DHT22;3650;53.580;10.094;2023-05-07T06:15:52;12.20;74.80
7218;DHT22;3650;53.580;10.094;2023-05-07T06:18:19;12.20;74.80
7218;DHT22;3650;53.580;10.094;2023-05-07T06:20:46;12.20;74.80
7218;DHT22;3650;53.580;10.094;2023-05-07T06:23:14;12.20;75.10
7218;DHT22;3650;53.580;10.094;2023-05-07T06:25:40;12.20;74.80
7218;DHT22;3650;53.580;10.094;2023-05-07T06:28:09;12.30;74.50
7218;DHT22;3650;53.580;10.094;2023-05-07T06:30:36;12.20;74.80
7218;DHT22;3650;53.580;10.094;2023-05-07T06:33:03;12.30;73.90
7218;DHT22;3650;53.580;10.094;2023-05-07T06:35:30;12.20;73.10
7218;DHT22;3650;53.580;10.094;2023-05-07T06:37:57;12.20;73.20
7218;DHT22;3650;53.580;10.094;2023-05-07T06:40:24;12.20;73.50
7218;DHT22;3650;53.580;10.094;2023-05-07T06:42:50;12.20;73.70
7218;DHT22;3650;53.580;10.094;2023-05-07T06:45:19;12.20;74.00
7218;DHT22;3650;53.580;10.094;2023-05-07T06:47:46;12.20;74.00
7218;DHT22;3650;53.580;10.094;2023-05-07T06:50:12;12.30;74.20
7218;DHT22;3650;53.580;10.094;2023-05-07T06:52:41;12.30;74.40
7218;DHT22;3650;53.580;10.094;2023-05-07T06:55:08;12.30;74.50
7218;DHT22;3650;53.580;10.094;2023-05-07T06:57:37;12.30;74.30
7218;DHT22;3650;53.580;10.094;2023-05-07T07:00:05;12.30;74.10
7218;DHT22;3650;53.580;10.094;2023-05-07T07:02:36;12.30;74.10
7218;DHT22;3650;53.580;10.094;2023-05-07T07:05:03;12.30;73.10
7218;DHT22;3650;53.580;10.094;2023-05-07T07:07:30;12.30;72.70
7218;DHT22;3650;53.580;10.094;2023-05-07T07:09:57;12.30;72.70
7218;DHT22;3650;53.580;10.094;2023-05-07T07:12:24;12.30;72.80
7218;DHT22;3650;53.580;10.094;2023-05-07T07:14:51;12.40;72.40
7218;DHT22;3650;53.580;10.094;2023-05-07T07:17:18;12.40;72.00
7218;DHT22;3650;53.580;10.094;2023-05-07T07:19:46;12.40;72.10
7218;DHT22;3650;53.580;10.094;2023-05-07T07:22:13;12.40;71.90
7218;DHT22;3650;53.580;10.094;2023-05-07T07:24:39;12.40;71.70
7218;DHT22;3650;53.580;10.094;2023-05-07T07:27:06;12.40;71.90
7218;DHT22;3650;53.580;10.094;2023-05-07T07:29:33;12.40;72.70
7218;DHT22;3650;53.580;10.094;2023-05-07T07:32:00;12.40;73.00
7218;DHT22;3650;53.580;10.094;2023-05-07T07:34:27;12.40;72.40
7218;DHT22;3650;53.580;10.094;2023-05-07T07:36:55;12.40;72.10
7218;DHT22;3650;53.580;10.094;2023-05-07T07:39:22;12.40;72.40
7218;DHT22;3650;53.580;10.094;2023-05-07T07:41:48;12.50;73.00
7218;DHT22;3650;53.580;10.094;2023-05-07T07:44:15;12.50;73.30
7218;DHT22;3650;53.580;10.094;2023-05-07T07:46:42;12.50;73.70
7218;DHT22;3650;53.580;10.094;2023-05-07T07:49:09;12.50;73.70
7218;DHT22;3650;53.580;10.094;2023-05-07T07:51:36;12.50;73.70
7218;DHT22;3650;53.580;10.094;2023-05-07T07:54:04;12.60;71.90
7218;DHT22;3650;53.580;10.094;2023-05-07T07:56:32;12.60;72.10
7218;DHT22;3650;53.580;10.094;2023-05-07T07:59:00;12.60;72.00
7218;DHT22;3650;53.580;10.094;2023-05-07T08:01:29;12.60;72.30
7218;DHT22;3650;53.580;10.094;2023-05-07T08:03:56;12.70;72.30
7218;DHT22;3650;53.580;10.094;2023-05-07T08:06:24;12.70;72.00
7218;DHT22;3650;53.580;10.094;2023-05-07T08:08:51;12.70;72.10
7218;DHT22;3650;53.580;10.094;2023-05-07T08:11:19;12.70;71.20
7218;DHT22;3650;53.580;10.094;2023-05-07T08:13:47;12.70;71.00
7218;DHT22;3650;53.580;10.094;2023-05-07T08:16:14;12.70;70.90
7218;DHT22;3650;53.580;10.094;2023-05-07T08:18:40;12.80;71.10
7218;DHT22;3650;53.580;10.094;2023-05-07T08:21:07;12.80;70.70
7218;DHT22;3650;53.580;10.094;2023-05-07T08:23:34;12.70;70.50
7218;DHT22;3650;53.580;10.094;2023-05-07T08:26:01;12.80;70.30
7218;DHT22;3650;53.580;10.094;2023-05-07T08:28:29;12.80;70.10
7218;DHT22;3650;53.580;10.094;2023-05-07T08:30:56;12.80;70.70
7218;DHT22;3650;53.580;10.094;2023-05-07T08:33:25;12.80;70.80
7218;DHT22;3650;53.580;10.094;2023-05-07T08:35:52;12.80;70.30
7218;DHT22;3650;53.580;10.094;2023-05-07T08:38:19;12.80;70.00
7218;DHT22;3650;53.580;10.094;2023-05-07T08:40:46;12.90;68.50
7218;DHT22;3650;53.580;10.094;2023-05-07T08:43:13;12.80;69.20
7218;DHT22;3650;53.580;10.094;2023-05-07T08:45:45;12.90;69.00
7218;DHT22;3650;53.580;10.094;2023-05-07T08:48:15;12.90;69.50
7218;DHT22;3650;53.580;10.094;2023-05-07T08:50:42;12.90;69.40
7218;DHT22;3650;53.580;10.094;2023-05-07T08:53:09;12.90;68.80
7218;DHT22;3650;53.580;10.094;2023-05-07T08:55:36;12.90;68.50
7218;DHT22;3650;53.580;10.094;2023-05-07T08:58:03;12.90;68.20
7218;DHT22;3650;53.580;10.094;2023-05-07T09:00:30;12.90;67.70
7218;DHT22;3650;53.580;10.094;2023-05-07T09:02:59;12.90;67.50
7218;DHT22;3650;53.580;10.094;2023-05-07T09:05:26;12.90;68.20
7218;DHT22;3650;53.580;10.094;2023-05-07T09:07:53;12.90;68.40
7218;DHT22;3650;53.580;10.094;2023-05-07T09:10:21;12.90;67.00
7218;DHT22;3650;53.580;10.094;2023-05-07T09:12:48;13.00;67.50
7218;DHT22;3650;53.580;10.094;2023-05-07T09:15:15;13.00;68.10
7218;DHT22;3650;53.580;10.094;2023-05-07T09:17:43;13.00;68.70
7218;DHT22;3650;53.580;10.094;2023-05-07T09:20:11;13.00;68.70
7218;DHT22;3650;53.580;10.094;2023-05-07T09:22:38;13.00;68.60
7218;DHT22;3650;53.580;10.094;2023-05-07T09:25:06;13.00;68.60
7218;DHT22;3650;53.580;10.094;2023-05-07T09:27:33;13.10;68.20
7218;DHT22;3650;53.580;10.094;2023-05-07T09:30:03;13.10;67.40
7218;DHT22;3650;53.580;10.094;2023-05-07T09:32:34;13.10;67.10
7218;DHT22;3650;53.580;10.094;2023-05-07T09:35:01;13.10;66.80
7218;DHT22;3650;53.580;10.094;2023-05-07T09:37:31;13.10;66.50
7218;DHT22;3650;53.580;10.094;2023-05-07T09:39:58;13.20;65.90
7218;DHT22;3650;53.580;10.094;2023-05-07T09:42:25;13.20;65.20
7218;DHT22;3650;53.580;10.094;2023-05-07T09:44:52;13.20;65.40
7218;DHT22;3650;53.580;10.094;2023-05-07T09:47:20;13.20;65.80
7218;DHT22;3650;53.580;10.094;2023-05-07T09:49:50;13.20;66.10
7218;DHT22;3650;53.580;10.094;2023-05-07T09:52:19;13.20;64.60
7218;DHT22;3650;53.580;10.094;2023-05-07T09:54:48;13.30;64.40
7218;DHT22;3650;53.580;10.094;2023-05-07T09:57:17;13.20;64.50
7218;DHT22;3650;53.580;10.094;2023-05-07T09:59:46;13.30;64.60
7218;DHT22;3650;53.580;10.094;2023-05-07T10:02:14;13.30;64.70
7218;DHT22;3650;53.580;10.094;2023-05-07T10:04:41;13.30;64.60
7218;DHT22;3650;53.580;10.094;2023-05-07T10:07:08;13.30;64.70
7218;DHT22;3650;53.580;10.094;2023-05-07T10:09:36;13.30;64.10
7218;DHT22;3650;53.580;10.094;2023-05-07T10:12:05;13.30;63.90
7218;DHT22;3650;53.580;10.094;2023-05-07T10:14:33;13.40;64.00
7218;DHT22;3650;53.580;10.094;2023-05-07T10:17:00;13.40;63.90
7218;DHT22;3650;53.580;10.094;2023-05-07T10:19:29;13.40;64.50
7218;DHT22;3650;53.580;10.094;2023-05-07T10:22:01;13.40;63.50
7218;DHT22;3650;53.580;10.094;2023-05-07T10:24:32;13.40;63.40
7218;DHT22;3650;53.580;10.094;2023-05-07T10:27:01;13.40;64.80
7218;DHT22;3650;53.580;10.094;2023-05-07T10:29:43;13.40;62.90
7218;DHT22;3650;53.580;10.094;2023-05-07T10:32:33;13.50;62.80
7218;DHT22;3650;53.580;10.094;2023-05-07T10:35:06;13.50;62.80
7218;DHT22;3650;53.580;10.094;2023-05-07T10:37:36;13.50;62.50
7218;DHT22;3650;53.580;10.094;2023-05-07T10:40:04;13.50;61.70
7218;DHT22;3650;53.580;10.094;2023-05-07T10:42:32;13.50;62.30
7218;DHT22;3650;53.580;10.094;2023-05-07T10:45:12;13.60;62.70
7218;DHT22;3650;53.580;10.094;2023-05-07T10:48:07;13.60;63.10
7218;DHT22;3650;53.580;10.094;2023-05-07T10:50:35;13.60;63.40
7218;DHT22;3650;53.580;10.094;2023-05-07T10:53:21;13.60;63.10
7218;DHT22;3650;53.580;10.094;2023-05-07T10:56:23;13.60;63.40
7218;DHT22;3650;53.580;10.094;2023-05-07T10:58:39;13.70;64.10
7218;DHT22;3650;53.580;10.094;2023-05-07T11:01:07;13.70;64.30
7218;DHT22;3650;53.580;10.094;2023-05-07T11:03:33;13.70;64.10
7218;DHT22;3650;53.580;10.094;2023-05-07T11:06:10;13.70;63.40
7218;DHT22;3650;53.580;10.094;2023-05-07T11:08:53;13.80;62.60
7218;DHT22;3650;53.580;10.094;2023-05-07T11:11:44;13.80;62.00
7218;DHT22;3650;53.580;10.094;2023-05-07T11:14:11;13.80;61.90
7218;DHT22;3650;53.580;10.094;2023-05-07T11:16:40;13.80;62.70
7218;DHT22;3650;53.580;10.094;2023-05-07T11:19:08;13.80;62.30
7218;DHT22;3650;53.580;10.094;2023-05-07T11:21:36;13.90;62.20
7218;DHT22;3650;53.580;10.094;2023-05-07T11:24:05;13.90;62.10
7218;DHT22;3650;53.580;10.094;2023-05-07T11:26:42;13.90;61.10
7218;DHT22;3650;53.580;10.094;2023-05-07T11:29:14;14.00;59.80
7218;DHT22;3650;53.580;10.094;2023-05-07T11:31:43;14.00;59.50
7218;DHT22;3650;53.580;10.094;2023-05-07T11:34:11;14.10;60.00
7218;DHT22;3650;53.580;10.094;2023-05-07T11:36:42;14.10;59.70
7218;DHT22;3650;53.580;10.094;2023-05-07T11:39:30;14.10;61.00
7218;DHT22;3650;53.580;10.094;2023-05-07T11:41:58;14.20;60.90
7218;DHT22;3650;53.580;10.094;2023-05-07T11:44:25;14.20;59.50
7218;DHT22;3650;53.580;10.094;2023-05-07T11:47:07;14.30;58.40
7218;DHT22;3650;53.580;10.094;2023-05-07T11:49:34;14.30;59.60
7218;DHT22;3650;53.580;10.094;2023-05-07T11:52:01;14.30;60.00
7218;DHT22;3650;53.580;10.094;2023-05-07T11:54:35;14.40;59.20
7218;DHT22;3650;53.580;10.094;2023-05-07T11:57:02;14.40;59.20
7218;DHT22;3650;53.580;10.094;2023-05-07T11:59:29;14.50;59.70
7218;DHT22;3650;53.580;10.094;2023-05-07T12:01:56;14.50;60.00
7218;DHT22;3650;53.580;10.094;2023-05-07T12:04:25;14.60;58.80
7218;DHT22;3650;53.580;10.094;2023-05-07T12:06:54;14.60;58.40
7218;DHT22;3650;53.580;10.094;2023-05-07T12:09:21;14.60;59.80
7218;DHT22;3650;53.580;10.094;2023-05-07T12:11:48;14.70;60.00
7218;DHT22;3650;53.580;10.094;2023-05-07T12:14:15;14.80;59.20
7218;DHT22;3650;53.580;10.094;2023-05-07T12:16:42;14.80;56.70
7218;DHT22;3650;53.580;10.094;2023-05-07T12:19:10;14.90;56.60
7218;DHT22;3650;53.580;10.094;2023-05-07T12:21:40;14.90;56.40
7218;DHT22;3650;53.580;10.094;2023-05-07T12:24:08;15.00;55.60
7218;DHT22;3650;53.580;10.094;2023-05-07T12:26:37;15.00;55.40
7218;DHT22;3650;53.580;10.094;2023-05-07T12:29:04;15.00;54.40
7218;DHT22;3650;53.580;10.094;2023-05-07T12:31:34;15.10;53.90
7218;DHT22;3650;53.580;10.094;2023-05-07T12:34:02;15.10;53.70
7218;DHT22;3650;53.580;10.094;2023-05-07T12:36:36;15.20;53.90
7218;DHT22;3650;53.580;10.094;2023-05-07T12:39:05;15.20;53.90
7218;DHT22;3650;53.580;10.094;2023-05-07T12:41:36;15.20;52.80
7218;DHT22;3650;53.580;10.094;2023-05-07T12:44:18;15.20;53.80
7218;DHT22;3650;53.580;10.094;2023-05-07T12:46:46;15.20;54.10
7218;DHT22;3650;53.580;10.094;2023-05-07T12:49:13;15.20;57.30
7218;DHT22;3650;53.580;10.094;2023-05-07T12:51:40;15.30;54.00
7218;DHT22;3650;53.580;10.094;2023-05-07T12:54:08;15.30;50.40
7218;DHT22;3650;53.580;10.094;2023-05-07T12:56:36;15.40;49.60
7218;DHT22;3650;53.580;10.094;2023-05-07T12:59:02;15.40;50.00
7218;DHT22;3650;53.580;10.094;2023-05-07T13:01:30;15.50;49.60
7218;DHT22;3650;53.580;10.094;2023-05-07T13:04:00;15.60;50.50
7218;DHT22;3650;53.580;10.094;2023-05-07T13:06:27;15.50;50.90
7218;DHT22;3650;53.580;10.094;2023-05-07T13:08:54;15.60;51.00
7218;DHT22;3650;53.580;10.094;2023-05-07T13:11:22;15.60;52.00
7218;DHT22;3650;53.580;10.094;2023-05-07T13:13:49;15.60;51.50
7218;DHT22;3650;53.580;10.094;2023-05-07T13:16:16;15.70;51.60
7218;DHT22;3650;53.580;10.094;2023-05-07T13:18:43;15.70;51.00
7218;DHT22;3650;53.580;10.094;2023-05-07T13:21:11;15.70;50.30
7218;DHT22;3650;53.580;10.094;2023-05-07T13:23:39;15.80;51.40
7218;DHT22;3650;53.580;10.094;2023-05-07T13:26:05;15.80;50.80
7218;DHT22;3650;53.580;10.094;2023-05-07T13:28:34;15.80;50.70
7218;DHT22;3650;53.580;10.094;2023-05-07T13:31:01;15.90;51.30
7218;DHT22;3650;53.580;10.094;2023-05-07T13:33:28;16.00;49.40
7218;DHT22;3650;53.580;10.094;2023-05-07T13:35:55;16.00;49.80
7218;DHT22;3650;53.580;10.094;2023-05-07T13:38:23;16.00;49.50
7218;DHT22;3650;53.580;10.094;2023-05-07T13:40:50;16.10;48.00
7218;DHT22;3650;53.580;10.094;2023-05-07T13:43:17;16.20;46.30
7218;DHT22;3650;53.580;10.094;2023-05-07T13:45:45;16.20;46.90
7218;DHT22;3650;53.580;10.094;2023-05-07T13:48:12;16.20;46.50
7218;DHT22;3650;53.580;10.094;2023-05-07T13:50:39;16.30;46.90
7218;DHT22;3650;53.580;10.094;2023-05-07T13:53:07;16.30;45.50
7218;DHT22;3650;53.580;10.094;2023-05-07T13:55:34;16.40;47.00
7218;DHT22;3650;53.580;10.094;2023-05-07T13:58:02;16.50;45.00
7218;DHT22;3650;53.580;10.094;2023-05-07T14:00:29;16.60;43.30
7218;DHT22;3650;53.580;10.094;2023-05-07T14:02:57;16.70;43.00
7218;DHT22;3650;53.580;10.094;2023-05-07T14:05:24;16.70;43.60
7218;DHT22;3650;53.580;10.094;2023-05-07T14:07:52;16.80;41.40
7218;DHT22;3650;53.580;10.094;2023-05-07T14:10:19;16.70;42.50
7218;DHT22;3650;53.580;10.094;2023-05-07T14:12:46;16.80;42.50
7218;DHT22;3650;53.580;10.094;2023-05-07T14:15:13;16.90;41.20
7218;DHT22;3650;53.580;10.094;2023-05-07T14:17:41;16.90;40.60
7218;DHT22;3650;53.580;10.094;2023-05-07T14:20:10;16.90;41.10
7218;DHT22;3650;53.580;10.094;2023-05-07T14:22:37;17.00;42.60
7218;DHT22;3650;53.580;10.094;2023-05-07T14:25:05;17.00;42.60
7218;DHT22;3650;53.580;10.094;2023-05-07T14:27:32;17.00;41.70
7218;DHT22;3650;53.580;10.094;2023-05-07T14:29:59;17.20;40.30
7218;DHT22;3650;53.580;10.094;2023-05-07T14:32:25;17.20;39.40
7218;DHT22;3650;53.580;10.094;2023-05-07T14:34:52;17.30;39.50
7218;DHT22;3650;53.580;10.094;2023-05-07T14:37:20;17.30;40.10
7218;DHT22;3650;53.580;10.094;2023-05-07T14:39:47;17.30;40.10
7218;DHT22;3650;53.580;10.094;2023-05-07T14:42:14;17.30;40.20
7218;DHT22;3650;53.580;10.094;2023-05-07T14:44:41;17.30;40.60
7218;DHT22;3650;53.580;10.094;2023-05-07T14:47:08;17.30;40.10
7218;DHT22;3650;53.580;10.094;2023-05-07T14:49:35;17.30;40.10
7218;DHT22;3650;53.580;10.094;2023-05-07T14:52:02;17.30;39.30
7218;DHT22;3650;53.580;10.094;2023-05-07T14:54:34;17.30;38.70
7218;DHT22;3650;53.580;10.094;2023-05-07T14:57:01;17.30;39.30
7218;DHT22;3650;53.580;10.094;2023-05-07T14:59:28;17.30;38.50
7218;DHT22;3650;53.580;10.094;2023-05-07T15:01:55;17.30;38.40
7218;DHT22;3650;53.580;10.094;2023-05-07T15:04:22;17.30;38.20
7218;DHT22;3650;53.580;10.094;2023-05-07T15:06:50;17.30;38.40
7218;DHT22;3650;53.580;10.094;2023-05-07T15:09:17;17.30;38.10
7218;DHT22;3650;53.580;10.094;2023-05-07T15:11:45;17.30;38.70
7218;DHT22;3650;53.580;10.094;2023-05-07T15:14:12;17.30;38.40
7218;DHT22;3650;53.580;10.094;2023-05-07T15:16:39;17.30;38.40
7218;DHT22;3650;53.580;10.094;2023-05-07T15:19:06;17.30;38.50
7218;DHT22;3650;53.580;10.094;2023-05-07T15:21:32;17.40;38.50
7218;DHT22;3650;53.580;10.094;2023-05-07T15:24:01;17.30;38.10
7218;DHT22;3650;53.580;10.094;2023-05-07T15:26:28;17.40;37.70
7218;DHT22;3650;53.580;10.094;2023-05-07T15:28:56;17.40;36.70
7218;DHT22;3650;53.580;10.094;2023-05-07T15:31:23;17.40;37.00
7218;DHT22;3650;53.580;10.094;2023-05-07T15:33:50;17.30;36.60
7218;DHT22;3650;53.580;10.094;2023-05-07T15:36:17;17.30;37.10
7218;DHT22;3650;53.580;10.094;2023-05-07T15:38:44;17.30;37.10
7218;DHT22;3650;53.580;10.094;2023-05-07T15:41:10;17.20;37.70
7218;DHT22;3650;53.580;10.094;2023-05-07T15:43:44;17.20;37.10
7218;DHT22;3650;53.580;10.094;2023-05-07T15:46:17;17.20;37.20
7218;DHT22;3650;53.580;10.094;2023-05-07T15:48:44;17.20;37.00
7218;DHT22;3650;53.580;10.094;2023-05-07T15:51:11;17.20;37.10